sensor_id;sensor_type;location;lat;lon;timestamp;pressure;altitude;pressure_sealevel;temperature;humidity
3260;BME280;68938;48.150;14.004;2023-12-29T00:01:43;98303.81;;;7.48;70.19
3260;BME280;68938;48.150;14.004;2023-12-29T00:04:10;98278.28;;;7.50;70.47
3260;BME280;68938;48.150;14.004;2023-12-29T00:06:41;98292.69;;;7.54;70.78
3260;BME280;68938;48.150;14.004;2023-12-29T00:09:22;98290.91;;;7.59;70.01
3260;BME280;68938;48.150;14.004;2023-12-29T00:11:50;98284.91;;;7.62;70.11
3260;BME280;68938;48.150;14.004;2023-12-29T00:14:18;98281.50;;;7.61;70.41
3260;BME280;68938;48.150;14.004;2023-12-29T00:16:44;98275.53;;;7.62;70.51
3260;BME280;68938;48.150;14.004;2023-12-29T00:19:12;98275.47;;;7.67;69.62
3260;BME280;68938;48.150;14.004;2023-12-29T00:21:39;98268.63;;;7.69;70.31
3260;BME280;68938;48.150;14.004;2023-12-29T00:24:06;98261.84;;;7.68;70.48
3260;BME280;68938;48.150;14.004;2023-12-29T00:26:33;98270.38;;;7.67;70.56
3260;BME280;68938;48.150;14.004;2023-12-29T00:29:00;98285.78;;;7.60;70.63
3260;BME280;68938;48.150;14.004;2023-12-29T00:31:27;98276.31;;;7.67;70.60
3260;BME280;68938;48.150;14.004;2023-12-29T00:33:54;98277.97;;;7.70;70.47
3260;BME280;68938;48.150;14.004;2023-12-29T00:36:21;98266.84;;;7.74;70.54
3260;BME280;68938;48.150;14.004;2023-12-29T00:38:48;98267.63;;;7.77;70.36
3260;BME280;68938;48.150;14.004;2023-12-29T00:41:16;98275.25;;;7.80;70.44
3260;BME280;68938;48.150;14.004;2023-12-29T00:43:43;98274.38;;;7.81;70.51
3260;BME280;68938;48.150;14.004;2023-12-29T00:46:14;98274.38;;;7.81;70.72
3260;BME280;68938;48.150;14.004;2023-12-29T00:48:41;98278.69;;;7.78;70.77
3260;BME280;68938;48.150;14.004;2023-12-29T00:51:09;98282.06;;;7.80;70.95
3260;BME280;68938;48.150;14.004;2023-12-29T00:53:36;98284.56;;;7.83;70.94
3260;BME280;68938;48.150;14.004;2023-12-29T00:56:09;98289.56;;;7.89;70.96
3260;BME280;68938;48.150;14.004;2023-12-29T00:58:36;98293.78;;;7.93;70.68
3260;BME280;68938;48.150;14.004;2023-12-29T01:01:06;98287.69;;;7.99;70.65
3260;BME280;68938;48.150;14.004;2023-12-29T01:03:34;98303.81;;;8.02;71.04
3260;BME280;68938;48.150;14.004;2023-12-29T01:06:02;98301.16;;;8.08;70.67
3260;BME280;68938;48.150;14.004;2023-12-29T01:08:29;98294.28;;;8.12;70.37
3260;BME280;68938;48.150;14.004;2023-12-29T01:10:56;98294.22;;;8.15;70.24
3260;BME280;68938;48.150;14.004;2023-12-29T01:13:23;98291.59;;;8.20;69.86
3260;BME280;68938;48.150;14.004;2023-12-29T01:15:50;98285.56;;;8.24;70.29
3260;BME280;68938;48.150;14.004;2023-12-29T01:18:16;98290.63;;;8.25;70.10
3260;BME280;68938;48.150;14.004;2023-12-29T01:20:44;98298.22;;;8.30;69.82
3260;BME280;68938;48.150;14.004;2023-12-29T01:23:11;98290.69;;;8.24;70.28
3260;BME280;68938;48.150;14.004;2023-12-29T01:25:38;98300.88;;;8.25;70.24
3260;BME280;68938;48.150;14.004;2023-12-29T01:28:05;98297.38;;;8.29;69.89
3260;BME280;68938;48.150;14.004;2023-12-29T01:30:32;98291.38;;;8.32;69.92
3260;BME280;68938;48.150;14.004;2023-12-29T01:32:59;98287.06;;;8.34;69.84
3260;BME280;68938;48.150;14.004;2023-12-29T01:35:26;98293.81;;;8.40;69.82
3260;BME280;68938;48.150;14.004;2023-12-29T01:37:53;98296.34;;;8.41;69.78
3260;BME280;68938;48.150;14.004;2023-12-29T01:40:20;98290.31;;;8.44;70.10
3260;BME280;68938;48.150;14.004;2023-12-29T01:42:47;98297.94;;;8.48;69.86
3260;BME280;68938;48.150;14.004;2023-12-29T01:45:23;98291.81;;;8.56;69.33
3260;BME280;68938;48.150;14.004;2023-12-29T01:47:51;98289.22;;;8.57;68.96
3260;BME280;68938;48.150;14.004;2023-12-29T01:50:20;98290.06;;;8.58;68.90
3260;BME280;68938;48.150;14.004;2023-12-29T01:52:49;98284.09;;;8.57;69.15
3260;BME280;68938;48.150;14.004;2023-12-29T01:55:19;98284.09;;;8.59;69.14
3260;BME280;68938;48.150;14.004;2023-12-29T01:57:47;98282.34;;;8.61;68.95
3260;BME280;68938;48.150;14.004;2023-12-29T02:00:16;98278.16;;;8.58;68.53
3260;BME280;68938;48.150;14.004;2023-12-29T02:02:46;98279.81;;;8.59;68.84
3260;BME280;68938;48.150;14.004;2023-12-29T02:05:14;98283.38;;;8.52;68.64
3260;BME280;68938;48.150;14.004;2023-12-29T02:07:42;98274.78;;;8.54;68.45
3260;BME280;68938;48.150;14.004;2023-12-29T02:10:09;98274.84;;;8.51;68.13
3260;BME280;68938;48.150;14.004;2023-12-29T02:12:37;98268.03;;;8.50;68.39
3260;BME280;68938;48.150;14.004;2023-12-29T02:15:05;98264.59;;;8.53;68.03
3260;BME280;68938;48.150;14.004;2023-12-29T02:17:39;98272.19;;;8.56;68.26
3260;BME280;68938;48.150;14.004;2023-12-29T02:20:09;98268.00;;;8.53;68.27
3260;BME280;68938;48.150;14.004;2023-12-29T02:22:36;98258.75;;;8.48;68.13
3260;BME280;68938;48.150;14.004;2023-12-29T02:25:05;98266.41;;;8.48;68.32
3260;BME280;68938;48.150;14.004;2023-12-29T02:30:32;98266.38;;;8.49;68.80
3260;BME280;68938;48.150;14.004;2023-12-29T02:33:09;98262.19;;;8.45;68.75
3260;BME280;68938;48.150;14.004;2023-12-29T02:35:42;98267.25;;;8.48;68.48
3260;BME280;68938;48.150;14.004;2023-12-29T02:38:11;98267.22;;;8.50;68.40
3260;BME280;68938;48.150;14.004;2023-12-29T02:40:38;98256.97;;;8.50;68.53
3260;BME280;68938;48.150;14.004;2023-12-29T02:43:06;98250.16;;;8.50;68.30
3260;BME280;68938;48.150;14.004;2023-12-29T02:45:34;98251.09;;;8.46;68.13
3260;BME280;68938;48.150;14.004;2023-12-29T02:48:01;98251.97;;;8.45;68.00
3260;BME280;68938;48.150;14.004;2023-12-29T02:50:29;98249.38;;;8.47;68.03
3260;BME280;68938;48.150;14.004;2023-12-29T02:52:56;98249.38;;;8.47;67.61
3260;BME280;68938;48.150;14.004;2023-12-29T02:55:23;98253.69;;;8.43;68.07
3260;BME280;68938;48.150;14.004;2023-12-29T02:57:50;98246.88;;;8.44;67.90
3260;BME280;68938;48.150;14.004;2023-12-29T03:00:17;98242.63;;;8.43;67.34
3260;BME280;68938;48.150;14.004;2023-12-29T03:02:44;98240.22;;;8.35;67.67
3260;BME280;68938;48.150;14.004;2023-12-29T03:05:11;98238.53;;;8.32;67.30
3260;BME280;68938;48.150;14.004;2023-12-29T03:07:38;98236.09;;;8.28;67.07
3260;BME280;68938;48.150;14.004;2023-12-29T03:10:05;98233.59;;;8.23;67.23
3260;BME280;68938;48.150;14.004;2023-12-29T03:12:33;98232.03;;;8.18;66.59
3260;BME280;68938;48.150;14.004;2023-12-29T03:15:00;98242.34;;;8.10;66.39
3260;BME280;68938;48.150;14.004;2023-12-29T03:17:27;98232.28;;;8.02;66.47
3260;BME280;68938;48.150;14.004;2023-12-29T03:19:54;98231.50;;;8.00;66.66
3260;BME280;68938;48.150;14.004;2023-12-29T03:22:21;98224.78;;;7.95;66.95
3260;BME280;68938;48.150;14.004;2023-12-29T03:24:48;98221.47;;;7.88;67.79
3260;BME280;68938;48.150;14.004;2023-12-29T03:27:15;98223.16;;;7.89;67.77
3260;BME280;68938;48.150;14.004;2023-12-29T03:29:42;98220.59;;;7.91;67.71
3260;BME280;68938;48.150;14.004;2023-12-29T03:32:09;98210.38;;;7.91;67.91
3260;BME280;68938;48.150;14.004;2023-12-29T03:34:36;98201.00;;;7.91;67.82
3260;BME280;68938;48.150;14.004;2023-12-29T03:37:03;98192.50;;;7.91;68.09
3260;BME280;68938;48.150;14.004;2023-12-29T03:39:31;98200.94;;;7.94;67.92
3260;BME280;68938;48.150;14.004;2023-12-29T03:41:57;98201.75;;;7.96;68.04
3260;BME280;68938;48.150;14.004;2023-12-29T03:44:24;98195.84;;;7.94;67.87
3260;BME280;68938;48.150;14.004;2023-12-29T03:46:51;98206.13;;;7.90;67.56
3260;BME280;68938;48.150;14.004;2023-12-29T03:49:18;98191.72;;;7.86;67.91
3260;BME280;68938;48.150;14.004;2023-12-29T03:51:46;98196.88;;;7.84;67.67
3260;BME280;68938;48.150;14.004;2023-12-29T03:54:13;98196.94;;;7.81;67.67
3260;BME280;68938;48.150;14.004;2023-12-29T03:56:40;98200.38;;;7.80;67.47
3260;BME280;68938;48.150;14.004;2023-12-29T03:59:07;98196.16;;;7.77;67.82
3260;BME280;68938;48.150;14.004;2023-12-29T04:01:34;98199.56;;;7.76;67.99
3260;BME280;68938;48.150;14.004;2023-12-29T04:04:01;98187.59;;;7.78;67.92
3260;BME280;68938;48.150;14.004;2023-12-29T04:06:29;98186.81;;;7.75;68.21
3260;BME280;68938;48.150;14.004;2023-12-29T04:08:56;98190.25;;;7.74;67.63
3260;BME280;68938;48.150;14.004;2023-12-29T04:11:23;98192.84;;;7.71;67.93
3260;BME280;68938;48.150;14.004;2023-12-29T04:13:50;98194.59;;;7.69;67.65
3260;BME280;68938;48.150;14.004;2023-12-29T04:16:16;98191.25;;;7.65;67.79
3260;BME280;68938;48.150;14.004;2023-12-29T04:18:43;98184.47;;;7.64;67.55
3260;BME280;68938;48.150;14.004;2023-12-29T04:21:14;98182.75;;;7.66;67.96
3260;BME280;68938;48.150;14.004;2023-12-29T04:23:42;98181.03;;;7.67;67.63
3260;BME280;68938;48.150;14.004;2023-12-29T04:26:09;98186.19;;;7.64;67.85
3260;BME280;68938;48.150;14.004;2023-12-29T04:28:36;98176.84;;;7.63;67.68
3260;BME280;68938;48.150;14.004;2023-12-29T04:31:03;98170.03;;;7.62;67.76
3260;BME280;68938;48.150;14.004;2023-12-29T04:33:31;98170.97;;;7.57;68.12
3260;BME280;68938;48.150;14.004;2023-12-29T04:35:58;98176.94;;;7.56;68.33
3260;BME280;68938;48.150;14.004;2023-12-29T04:38:25;98170.97;;;7.57;68.62
3260;BME280;68938;48.150;14.004;2023-12-29T04:40:52;98159.88;;;7.60;68.06
3260;BME280;68938;48.150;14.004;2023-12-29T04:43:19;98155.59;;;7.60;68.59
3260;BME280;68938;48.150;14.004;2023-12-29T04:45:46;98149.59;;;7.63;68.45
3260;BME280;68938;48.150;14.004;2023-12-29T04:48:13;98157.25;;;7.63;68.21
3260;BME280;68938;48.150;14.004;2023-12-29T04:50:40;98166.66;;;7.61;68.54
3260;BME280;68938;48.150;14.004;2023-12-29T04:53:07;98172.63;;;7.60;68.19
3260;BME280;68938;48.150;14.004;2023-12-29T04:55:34;98179.63;;;7.49;68.80
3260;BME280;68938;48.150;14.004;2023-12-29T04:58:00;98170.25;;;7.49;69.25
3260;BME280;68938;48.150;14.004;2023-12-29T05:00:28;98173.59;;;7.51;68.52
3260;BME280;68938;48.150;14.004;2023-12-29T05:02:55;98165.91;;;7.54;69.19
3260;BME280;68938;48.150;14.004;2023-12-29T05:05:22;98177.41;;;7.29;70.53
3260;BME280;68938;48.150;14.004;2023-12-29T05:07:49;98179.78;;;7.38;70.09
3260;BME280;68938;48.150;14.004;2023-12-29T05:10:16;98172.06;;;7.43;69.67
3260;BME280;68938;48.150;14.004;2023-12-29T05:12:43;98171.28;;;7.38;69.87
3260;BME280;68938;48.150;14.004;2023-12-29T05:15:10;98170.38;;;7.42;69.82
3260;BME280;68938;48.150;14.004;2023-12-29T05:17:37;98175.47;;;7.42;69.70
3260;BME280;68938;48.150;14.004;2023-12-29T05:20:06;98183.16;;;7.40;69.83
3260;BME280;68938;48.150;14.004;2023-12-29T05:22:34;98180.66;;;7.37;69.64
3260;BME280;68938;48.150;14.004;2023-12-29T05:25:01;98179.78;;;7.40;69.95
3260;BME280;68938;48.150;14.004;2023-12-29T05:27:29;98171.16;;;7.45;70.04
3260;BME280;68938;48.150;14.004;2023-12-29T05:29:55;98171.09;;;7.48;69.84
3260;BME280;68938;48.150;14.004;2023-12-29T05:32:22;98168.50;;;7.51;69.63
3260;BME280;68938;48.150;14.004;2023-12-29T05:34:50;98164.19;;;7.55;69.61
3260;BME280;68938;48.150;14.004;2023-12-29T05:37:17;98162.63;;;7.48;69.80
3260;BME280;68938;48.150;14.004;2023-12-29T05:39:44;98159.22;;;7.49;69.57
3260;BME280;68938;48.150;14.004;2023-12-29T05:42:11;98158.34;;;7.50;69.55
3260;BME280;68938;48.150;14.004;2023-12-29T05:44:38;98149.91;;;7.46;69.39
3260;BME280;68938;48.150;14.004;2023-12-29T05:47:05;98165.31;;;7.40;69.95
3260;BME280;68938;48.150;14.004;2023-12-29T05:49:32;98165.34;;;7.39;69.88
3260;BME280;68938;48.150;14.004;2023-12-29T05:51:59;98161.88;;;7.41;69.95
3260;BME280;68938;48.150;14.004;2023-12-29T05:54:26;98170.31;;;7.45;70.05
3260;BME280;68938;48.150;14.004;2023-12-29T05:56:53;98166.09;;;7.44;69.91
3260;BME280;68938;48.150;14.004;2023-12-29T05:59:20;98176.25;;;7.47;70.04
3260;BME280;68938;48.150;14.004;2023-12-29T06:01:47;98170.31;;;7.46;69.71
3260;BME280;68938;48.150;14.004;2023-12-29T06:04:14;98177.03;;;7.50;69.94
3260;BME280;68938;48.150;14.004;2023-12-29T06:06:44;98172.75;;;7.52;70.00
3260;BME280;68938;48.150;14.004;2023-12-29T06:09:11;98181.22;;;7.56;69.85
3260;BME280;68938;48.150;14.004;2023-12-29T06:11:38;98176.06;;;7.59;69.81
3260;BME280;68938;48.150;14.004;2023-12-29T06:14:05;98182.78;;;7.63;69.79
3260;BME280;68938;48.150;14.004;2023-12-29T06:16:32;98186.97;;;7.67;69.53
3260;BME280;68938;48.150;14.004;2023-12-29T06:18:59;98183.47;;;7.71;69.37
3260;BME280;68938;48.150;14.004;2023-12-29T06:21:26;98184.28;;;7.75;69.57
3260;BME280;68938;48.150;14.004;2023-12-29T06:23:53;98183.38;;;7.76;69.20
3260;BME280;68938;48.150;14.004;2023-12-29T06:26:20;98194.44;;;7.78;69.15
3260;BME280;68938;48.150;14.004;2023-12-29T06:28:47;98180.00;;;7.77;69.05
3260;BME280;68938;48.150;14.004;2023-12-29T06:31:16;98179.19;;;7.73;68.66
3260;BME280;68938;48.150;14.004;2023-12-29T06:33:44;98183.47;;;7.73;68.78
3260;BME280;68938;48.150;14.004;2023-12-29T06:36:12;98184.31;;;7.73;68.60
3260;BME280;68938;48.150;14.004;2023-12-29T06:38:39;98191.97;;;7.72;68.62
3260;BME280;68938;48.150;14.004;2023-12-29T06:41:06;98181.72;;;7.75;68.92
3260;BME280;68938;48.150;14.004;2023-12-29T06:43:33;98167.22;;;7.77;69.04
3260;BME280;68938;48.150;14.004;2023-12-29T06:46:00;98167.19;;;7.78;69.14
3260;BME280;68938;48.150;14.004;2023-12-29T06:48:27;98166.28;;;7.81;69.23
3260;BME280;68938;48.150;14.004;2023-12-29T06:50:54;98156.84;;;7.84;69.24
3260;BME280;68938;48.150;14.004;2023-12-29T06:53:21;98156.81;;;7.88;69.64
3260;BME280;68938;48.150;14.004;2023-12-29T06:55:48;98154.16;;;7.94;69.55
3260;BME280;68938;48.150;14.004;2023-12-29T06:58:16;98164.34;;;7.94;69.11
3260;BME280;68938;48.150;14.004;2023-12-29T07:00:43;98171.09;;;7.98;69.47
3260;BME280;68938;48.150;14.004;2023-12-29T07:03:14;98166.72;;;8.03;69.35
3260;BME280;68938;48.150;14.004;2023-12-29T07:05:41;98168.41;;;8.04;69.79
3260;BME280;68938;48.150;14.004;2023-12-29T07:08:12;98169.16;;;8.11;69.52
3260;BME280;68938;48.150;14.004;2023-12-29T07:10:39;98174.16;;;8.15;69.57
3260;BME280;68938;48.150;14.004;2023-12-29T07:13:06;98177.50;;;8.19;69.32
3260;BME280;68938;48.150;14.004;2023-12-29T07:15:33;98185.91;;;8.24;69.15
3260;BME280;68938;48.150;14.004;2023-12-29T07:18:00;98180.75;;;8.25;69.08
3260;BME280;68938;48.150;14.004;2023-12-29T07:20:28;98186.59;;;8.30;69.12
3260;BME280;68938;48.150;14.004;2023-12-29T07:22:55;98184.84;;;8.34;68.80
3260;BME280;68938;48.150;14.004;2023-12-29T07:25:22;98194.19;;;8.38;69.28
3260;BME280;68938;48.150;14.004;2023-12-29T07:27:49;98187.34;;;8.39;69.17
3260;BME280;68938;48.150;14.004;2023-12-29T07:30:16;98195.78;;;8.42;69.09
3260;BME280;68938;48.150;14.004;2023-12-29T07:32:43;98186.34;;;8.46;69.09
3260;BME280;68938;48.150;14.004;2023-12-29T07:35:10;98199.84;;;8.51;68.89
3260;BME280;68938;48.150;14.004;2023-12-29T07:37:37;98200.63;;;8.56;68.76
3260;BME280;68938;48.150;14.004;2023-12-29T07:40:05;98198.84;;;8.60;68.75
3260;BME280;68938;48.150;14.004;2023-12-29T07:42:32;98189.44;;;8.62;68.29
3260;BME280;68938;48.150;14.004;2023-12-29T07:44:59;98186.78;;;8.66;68.59
3260;BME280;68938;48.150;14.004;2023-12-29T07:47:26;98188.44;;;8.69;68.17
3260;BME280;68938;48.150;14.004;2023-12-29T07:49:53;98188.38;;;8.70;68.30
3260;BME280;68938;48.150;14.004;2023-12-29T07:52:20;98184.09;;;8.72;68.87
3260;BME280;68938;48.150;14.004;2023-12-29T07:54:48;98206.16;;;8.75;68.26
3260;BME280;68938;48.150;14.004;2023-12-29T07:57:15;98215.56;;;8.76;68.49
3260;BME280;68938;48.150;14.004;2023-12-29T07:59:42;98221.44;;;8.80;68.15
3260;BME280;68938;48.150;14.004;2023-12-29T08:02:09;98212.88;;;8.82;68.28
3260;BME280;68938;48.150;14.004;2023-12-29T08:04:36;98228.22;;;8.82;68.42
3260;BME280;68938;48.150;14.004;2023-12-29T08:07:03;98205.09;;;8.85;68.86
3260;BME280;68938;48.150;14.004;2023-12-29T08:09:30;98219.59;;;8.86;68.81
3260;BME280;68938;48.150;14.004;2023-12-29T08:11:57;98217.81;;;8.88;68.89
3260;BME280;68938;48.150;14.004;2023-12-29T08:14:24;98210.13;;;8.90;68.53
3260;BME280;68938;48.150;14.004;2023-12-29T08:16:51;98216.78;;;8.97;68.79
3260;BME280;68938;48.150;14.004;2023-12-29T08:19:18;98212.47;;;8.99;68.75
3260;BME280;68938;48.150;14.004;2023-12-29T08:21:45;98205.66;;;8.99;68.84
3260;BME280;68938;48.150;14.004;2023-12-29T08:24:12;98199.59;;;9.02;68.79
3260;BME280;68938;48.150;14.004;2023-12-29T08:26:44;98202.16;;;9.04;69.35
3260;BME280;68938;48.150;14.004;2023-12-29T08:29:13;98199.53;;;9.07;69.05
3260;BME280;68938;48.150;14.004;2023-12-29T08:31:41;98201.13;;;9.11;69.36
3260;BME280;68938;48.150;14.004;2023-12-29T08:34:09;98210.41;;;9.15;69.51
3260;BME280;68938;48.150;14.004;2023-12-29T08:36:36;98213.72;;;9.20;69.22
3260;BME280;68938;48.150;14.004;2023-12-29T08:39:03;98218.72;;;9.24;69.38
3260;BME280;68938;48.150;14.004;2023-12-29T08:41:30;98222.00;;;9.30;69.23
3260;BME280;68938;48.150;14.004;2023-12-29T08:43:57;98232.09;;;9.36;69.34
3260;BME280;68938;48.150;14.004;2023-12-29T08:46:24;98235.44;;;9.39;68.97
3260;BME280;68938;48.150;14.004;2023-12-29T08:48:51;98227.63;;;9.45;69.27
3260;BME280;68938;48.150;14.004;2023-12-29T08:51:18;98224.16;;;9.46;69.21
3260;BME280;68938;48.150;14.004;2023-12-29T08:53:45;98236.13;;;9.47;69.09
3260;BME280;68938;48.150;14.004;2023-12-29T08:56:12;98235.19;;;9.50;68.74
3260;BME280;68938;48.150;14.004;2023-12-29T08:58:40;98242.78;;;9.53;68.62
3260;BME280;68938;48.150;14.004;2023-12-29T09:01:07;98242.75;;;9.55;68.54
3260;BME280;68938;48.150;14.004;2023-12-29T09:03:34;98238.44;;;9.57;68.71
3260;BME280;68938;48.150;14.004;2023-12-29T09:06:02;98235.03;;;9.56;68.47
3260;BME280;68938;48.150;14.004;2023-12-29T09:08:29;98233.28;;;9.58;68.42
3260;BME280;68938;48.150;14.004;2023-12-29T09:10:56;98240.84;;;9.63;68.43
3260;BME280;68938;48.150;14.004;2023-12-29T09:13:23;98239.97;;;9.64;68.49
3260;BME280;68938;48.150;14.004;2023-12-29T09:15:50;98242.44;;;9.67;68.33
3260;BME280;68938;48.150;14.004;2023-12-29T09:18:17;98225.28;;;9.70;68.33
3260;BME280;68938;48.150;14.004;2023-12-29T09:20:44;98238.06;;;9.72;67.75
3260;BME280;68938;48.150;14.004;2023-12-29T09:23:11;98239.66;;;9.76;67.85
3260;BME280;68938;48.150;14.004;2023-12-29T09:25:38;98238.69;;;9.82;67.84
3260;BME280;68938;48.150;14.004;2023-12-29T09:28:05;98237.66;;;9.87;67.74
3260;BME280;68938;48.150;14.004;2023-12-29T09:30:32;98235.00;;;9.92;67.85
3260;BME280;68938;48.150;14.004;2023-12-29T09:32:59;98228.88;;;9.97;67.75
3260;BME280;68938;48.150;14.004;2023-12-29T09:35:26;98232.19;;;10.01;67.75
3260;BME280;68938;48.150;14.004;2023-12-29T09:37:57;98230.44;;;10.03;67.79
3260;BME280;68938;48.150;14.004;2023-12-29T09:40:25;98235.41;;;10.09;67.69
3260;BME280;68938;48.150;14.004;2023-12-29T09:42:52;98220.78;;;10.13;67.35
3260;BME280;68938;48.150;14.004;2023-12-29T09:45:23;98218.09;;;10.17;67.24
3260;BME280;68938;48.150;14.004;2023-12-29T09:47:51;98227.44;;;10.18;67.43
3260;BME280;68938;48.150;14.004;2023-12-29T09:50:19;98234.47;;;10.12;66.59
3260;BME280;68938;48.150;14.004;2023-12-29T09:52:48;98238.84;;;10.08;67.49
3260;BME280;68938;48.150;14.004;2023-12-29T09:55:16;98231.97;;;10.10;67.76
3260;BME280;68938;48.150;14.004;2023-12-29T09:57:44;98241.28;;;10.13;67.47
3260;BME280;68938;48.150;14.004;2023-12-29T10:00:15;98228.56;;;10.10;67.53
3260;BME280;68938;48.150;14.004;2023-12-29T10:02:44;98243.13;;;10.08;67.54
3260;BME280;68938;48.150;14.004;2023-12-29T10:05:11;98237.97;;;10.09;67.97
3260;BME280;68938;48.150;14.004;2023-12-29T10:07:39;98226.78;;;10.12;67.87
3260;BME280;68938;48.150;14.004;2023-12-29T10:10:06;98224.06;;;10.18;68.01
3260;BME280;68938;48.150;14.004;2023-12-29T10:12:35;98229.06;;;10.23;67.95
3260;BME280;68938;48.150;14.004;2023-12-29T10:17:55;98224.81;;;10.21;67.86
3260;BME280;68938;48.150;14.004;2023-12-29T10:26:14;98227.28;;;10.25;68.34
3260;BME280;68938;48.150;14.004;2023-12-29T10:28:41;98221.28;;;10.27;68.19
3260;BME280;68938;48.150;14.004;2023-12-29T10:31:09;98219.34;;;10.35;68.29
3260;BME280;68938;48.150;14.004;2023-12-29T10:33:42;98211.53;;;10.40;68.26
3260;BME280;68938;48.150;14.004;2023-12-29T10:36:09;98213.13;;;10.44;68.20
3260;BME280;68938;48.150;14.004;2023-12-29T10:38:39;98211.22;;;10.51;67.62
3260;BME280;68938;48.150;14.004;2023-12-29T10:41:16;98206.84;;;10.54;68.50
3260;BME280;68938;48.150;14.004;2023-12-29T10:43:45;98210.09;;;10.61;68.20
3260;BME280;68938;48.150;14.004;2023-12-29T10:46:13;98202.22;;;10.67;67.94
3260;BME280;68938;48.150;14.004;2023-12-29T10:48:40;98197.75;;;10.74;68.13
3260;BME280;68938;48.150;14.004;2023-12-29T10:51:07;98185.53;;;10.82;68.12
3260;BME280;68938;48.150;14.004;2023-12-29T10:53:35;98176.91;;;10.84;67.98
3260;BME280;68938;48.150;14.004;2023-12-29T10:56:17;98180.91;;;10.93;68.11
3260;BME280;68938;48.150;14.004;2023-12-29T10:58:44;98166.94;;;11.02;67.97
3260;BME280;68938;48.150;14.004;2023-12-29T11:01:14;98166.03;;;11.04;67.87
3260;BME280;68938;48.150;14.004;2023-12-29T11:03:41;98164.28;;;11.05;67.94
3260;BME280;68938;48.150;14.004;2023-12-29T11:10:06;98165.72;;;11.13;67.79
3260;BME280;68938;48.150;14.004;2023-12-29T11:12:36;98161.31;;;11.17;66.80
3260;BME280;68938;48.150;14.004;2023-12-29T11:15:05;98155.19;;;11.21;67.05
3260;BME280;68938;48.150;14.004;2023-12-29T11:17:35;98155.97;;;11.25;66.75
3260;BME280;68938;48.150;14.004;2023-12-29T11:20:04;98154.91;;;11.30;66.58
3260;BME280;68938;48.150;14.004;2023-12-29T11:22:32;98150.47;;;11.35;66.79
3260;BME280;68938;48.150;14.004;2023-12-29T11:24:59;98145.28;;;11.37;66.22
3260;BME280;68938;48.150;14.004;2023-12-29T11:27:28;98146.75;;;11.44;66.02
3260;BME280;68938;48.150;14.004;2023-12-29T11:29:57;98138.84;;;11.50;66.10
3260;BME280;68938;48.150;14.004;2023-12-29T11:32:32;98137.72;;;11.59;65.82
3260;BME280;68938;48.150;14.004;2023-12-29T11:35:21;98134.91;;;11.65;65.82
3260;BME280;68938;48.150;14.004;2023-12-29T11:38:58;98131.19;;;11.74;65.92
3260;BME280;68938;48.150;14.004;2023-12-29T11:44:01;98122.09;;;11.90;65.59
3260;BME280;68938;48.150;14.004;2023-12-29T11:46:38;98123.44;;;12.00;65.68
3260;BME280;68938;48.150;14.004;2023-12-29T11:49:06;98121.53;;;12.05;65.56
3260;BME280;68938;48.150;14.004;2023-12-29T11:51:46;98113.41;;;12.16;65.12
3260;BME280;68938;48.150;14.004;2023-12-29T11:54:25;98121.81;;;12.21;65.24
3260;BME280;68938;48.150;14.004;2023-12-29T11:56:53;98110.56;;;12.24;65.34
3260;BME280;68938;48.150;14.004;2023-12-29T11:59:22;98111.25;;;12.29;65.00
3260;BME280;68938;48.150;14.004;2023-12-29T12:01:55;98105.03;;;12.35;65.19
3260;BME280;68938;48.150;14.004;2023-12-29T12:04:41;98109.81;;;12.44;64.96
3260;BME280;68938;48.150;14.004;2023-12-29T12:09:43;98101.16;;;12.46;64.84
3260;BME280;68938;48.150;14.004;2023-12-29T12:12:10;98093.44;;;12.46;64.35
3260;BME280;68938;48.150;14.004;2023-12-29T12:14:53;98097.69;;;12.47;64.17
3260;BME280;68938;48.150;14.004;2023-12-29T12:17:33;98096.09;;;12.45;64.16
3260;BME280;68938;48.150;14.004;2023-12-29T12:20:08;98085.78;;;12.45;63.74
3260;BME280;68938;48.150;14.004;2023-12-29T12:22:36;98084.78;;;12.49;63.94
3260;BME280;68938;48.150;14.004;2023-12-29T12:25:05;98081.97;;;12.55;64.05
3260;BME280;68938;48.150;14.004;2023-12-29T12:27:33;98069.72;;;12.62;64.33
3260;BME280;68938;48.150;14.004;2023-12-29T12:30:00;98066.00;;;12.69;64.21
3260;BME280;68938;48.150;14.004;2023-12-29T12:32:27;98071.78;;;12.74;64.23
3260;BME280;68938;48.150;14.004;2023-12-29T12:34:56;98071.53;;;12.80;64.82
3260;BME280;68938;48.150;14.004;2023-12-29T12:37:25;98064.53;;;12.84;64.83
3260;BME280;68938;48.150;14.004;2023-12-29T12:39:53;98063.38;;;12.91;64.56
3260;BME280;68938;48.150;14.004;2023-12-29T12:42:21;98058.94;;;12.94;64.42
3260;BME280;68938;48.150;14.004;2023-12-29T12:45:11;98054.38;;;13.01;64.49
3260;BME280;68938;48.150;14.004;2023-12-29T12:50:15;98058.06;;;13.16;64.17
3260;BME280;68938;48.150;14.004;2023-12-29T12:52:42;98057.88;;;13.20;64.09
3260;BME280;68938;48.150;14.004;2023-12-29T12:55:10;98057.72;;;13.25;63.94
3260;BME280;68938;48.150;14.004;2023-12-29T12:57:37;98046.50;;;13.26;64.11
3260;BME280;68938;48.150;14.004;2023-12-29T13:00:05;98045.50;;;13.30;63.80
3260;BME280;68938;48.150;14.004;2023-12-29T13:02:34;98041.31;;;13.27;63.69
3260;BME280;68938;48.150;14.004;2023-12-29T13:05:01;98035.38;;;13.25;63.42
3260;BME280;68938;48.150;14.004;2023-12-29T13:07:29;98046.44;;;13.27;63.11
3260;BME280;68938;48.150;14.004;2023-12-29T13:09:56;98042.97;;;13.28;63.00
3260;BME280;68938;48.150;14.004;2023-12-29T13:12:23;98038.66;;;13.29;62.43
3260;BME280;68938;48.150;14.004;2023-12-29T13:14:50;98035.03;;;13.33;62.83
3260;BME280;68938;48.150;14.004;2023-12-29T13:17:17;98025.50;;;13.35;62.77
3260;BME280;68938;48.150;14.004;2023-12-29T13:19:44;98033.19;;;13.37;62.91
3260;BME280;68938;48.150;14.004;2023-12-29T13:22:12;98037.44;;;13.38;63.06
3260;BME280;68938;48.150;14.004;2023-12-29T13:24:43;98025.38;;;13.38;63.04
3260;BME280;68938;48.150;14.004;2023-12-29T13:27:13;98027.75;;;13.43;62.79
3260;BME280;68938;48.150;14.004;2023-12-29T13:29:40;98026.91;;;13.42;62.47
3260;BME280;68938;48.150;14.004;2023-12-29T13:32:20;98030.91;;;13.49;62.52
3260;BME280;68938;48.150;14.004;2023-12-29T13:34:54;98027.56;;;13.47;62.76
3260;BME280;68938;48.150;14.004;2023-12-29T13:37:32;98023.94;;;13.51;62.75